Time;durP1;ratioP1;P1;durP2;ratioP2;P2;SDS_P1;SDS_P2;PMS_P1;PMS_P2;Temp;Humidity;BMP_temperature;BMP_pressure;BME280_temperature;BME280_humidity;BME280_pressure;Samples;Min_cycle;Max_cycle;Signal;HPM_P1;HPM_P2
2020/12/15 00:01:20;;;;;;;1.73;0.30;;;7.00;99.90;;;;;;5024403;28;20189;-62
2020/12/15 00:03:46;;;;;;;1.70;0.20;;;7.00;99.90;;;;;;5032554;28;20190;-63
2020/12/15 00:06:12;;;;;;;1.70;0.20;;;7.00;99.90;;;;;;5034308;28;20447;-62
2020/12/15 00:08:37;;;;;;;1.70;0.20;;;7.00;99.90;;;;;;5021165;28;20556;-62
2020/12/15 00:11:03;;;;;;;1.70;0.20;;;7.00;99.90;;;;;;5042749;28;20193;-62
2020/12/15 00:13:29;;;;;;;1.70;0.20;;;7.00;99.90;;;;;;5030366;28;20196;-63
2020/12/15 00:15:54;;;;;;;1.70;0.20;;;7.00;99.90;;;;;;5030505;28;20287;-62
2020/12/15 00:18:20;;;;;;;1.70;0.20;;;6.90;99.90;;;;;;5033038;28;20468;-62
2020/12/15 00:20:45;;;;;;;1.70;0.20;;;7.00;99.90;;;;;;5034147;28;20584;-62
2020/12/15 00:23:11;;;;;;;1.70;0.20;;;7.00;99.90;;;;;;5022430;28;20174;-62
2020/12/15 00:25:36;;;;;;;1.70;0.20;;;7.00;99.90;;;;;;5032257;28;20595;-62
2020/12/15 00:28:02;;;;;;;1.70;0.20;;;7.10;99.90;;;;;;5033186;28;20746;-63
2020/12/15 00:30:27;;;;;;;1.70;0.30;;;7.00;99.90;;;;;;5022729;28;20190;-62
2020/12/15 00:32:53;;;;;;;1.70;0.20;;;6.90;99.90;;;;;;5030338;28;20194;-63
2020/12/15 00:35:19;;;;;;;1.70;0.20;;;6.90;99.90;;;;;;5033594;28;20673;-63
2020/12/15 00:37:45;;;;;;;1.70;0.20;;;6.90;99.90;;;;;;5034899;28;20471;-62
2020/12/15 00:40:11;;;;;;;1.70;0.20;;;7.00;99.90;;;;;;5033586;28;20432;-62
2020/12/15 00:42:36;;;;;;;1.70;0.20;;;7.10;99.90;;;;;;5024913;28;20194;-62
2020/12/15 00:45:02;;;;;;;1.70;0.20;;;7.10;99.90;;;;;;5025479;28;20213;-62
2020/12/15 00:47:28;;;;;;;1.70;0.20;;;7.20;99.90;;;;;;5032790;28;20573;-62
2020/12/15 00:49:53;;;;;;;1.70;0.20;;;7.20;99.90;;;;;;5025127;28;20531;-62
2020/12/15 00:52:26;;;;;;;1.70;0.20;;;7.20;99.90;;;;;;5032089;28;20197;-62
2020/12/15 00:54:52;;;;;;;1.70;0.20;;;7.20;99.90;;;;;;5031465;28;20182;-62
2020/12/15 00:57:18;;;;;;;1.70;0.20;;;7.20;99.90;;;;;;5028460;28;20494;-66
2020/12/15 00:59:44;;;;;;;1.70;0.20;;;7.20;99.90;;;;;;5029897;28;20660;-62
2020/12/15 01:02:10;;;;;;;1.70;0.20;;;7.20;99.90;;;;;;5020389;28;20440;-62
2020/12/15 01:04:35;;;;;;;1.70;0.20;;;7.30;99.90;;;;;;5031917;28;20995;-62
2020/12/15 01:07:01;;;;;;;1.70;0.20;;;7.30;99.90;;;;;;5023553;28;20261;-62
2020/12/15 01:09:26;;;;;;;1.70;0.20;;;7.30;99.90;;;;;;5029079;28;20660;-62
2020/12/15 01:11:52;;;;;;;1.70;0.20;;;7.20;99.90;;;;;;5030855;28;20315;-62
2020/12/15 01:14:17;;;;;;;1.70;0.20;;;7.20;99.90;;;;;;5031342;28;20255;-62
2020/12/15 01:16:43;;;;;;;1.70;0.20;;;7.10;99.90;;;;;;5027741;28;20213;-61
2020/12/15 01:19:08;;;;;;;1.70;0.20;;;7.20;99.90;;;;;;5029399;28;20221;-61
2020/12/15 01:21:34;;;;;;;1.70;0.30;;;7.20;99.90;;;;;;5030831;28;20171;-61
2020/12/15 01:23:59;;;;;;;1.70;0.20;;;7.30;99.90;;;;;;5031549;28;20189;-62
2020/12/15 01:26:25;;;;;;;1.70;0.20;;;7.30;99.90;;;;;;5029938;28;20526;-61
2020/12/15 01:28:51;;;;;;;1.70;0.20;;;7.40;99.90;;;;;;5043151;28;20209;-62
2020/12/15 01:31:23;;;;;;;1.70;0.20;;;7.40;99.90;;;;;;5036346;28;20208;-62
2020/12/15 01:33:49;;;;;;;1.70;0.20;;;7.40;99.90;;;;;;5038475;28;20198;-65
2020/12/15 01:36:14;;;;;;;1.70;0.20;;;7.30;99.90;;;;;;5040110;28;20461;-62
2020/12/15 01:38:43;;;;;;;1.70;0.20;;;7.30;99.90;;;;;;5037658;28;20760;-62
2020/12/15 01:41:08;;;;;;;1.70;0.20;;;7.40;99.90;;;;;;5022654;28;20186;-62
2020/12/15 01:43:34;;;;;;;1.70;0.20;;;7.40;99.90;;;;;;5030349;28;20441;-62
2020/12/15 01:46:00;;;;;;;1.70;0.20;;;7.40;99.90;;;;;;5027909;28;20265;-62
2020/12/15 01:48:26;;;;;;;1.70;0.20;;;7.40;99.90;;;;;;5031924;28;20210;-62
2020/12/15 01:50:51;;;;;;;1.70;0.20;;;7.40;99.90;;;;;;5023949;28;20432;-62
2020/12/15 01:53:17;;;;;;;1.70;0.20;;;7.40;99.90;;;;;;5026962;28;20190;-61
2020/12/15 01:55:44;;;;;;;1.70;0.20;;;7.30;99.90;;;;;;5030332;28;20197;-62
2020/12/15 01:58:10;;;;;;;1.70;0.20;;;7.30;99.90;;;;;;5017967;28;20265;-62
2020/12/15 02:00:36;;;;;;;1.70;0.20;;;7.20;99.90;;;;;;5025611;28;20830;-62
2020/12/15 02:03:02;;;;;;;1.70;0.23;;;7.10;99.90;;;;;;5027240;28;20626;-62
2020/12/15 02:05:29;;;;;;;1.70;0.20;;;7.10;99.90;;;;;;5031112;28;20224;-62
2020/12/15 02:07:54;;;;;;;1.70;0.20;;;7.10;99.90;;;;;;5018833;28;20465;-63
2020/12/15 02:10:20;;;;;;;1.70;0.20;;;7.10;99.90;;;;;;5024139;28;20435;-63
2020/12/15 02:12:46;;;;;;;1.70;0.20;;;7.20;99.90;;;;;;5031854;28;20191;-63
2020/12/15 02:15:11;;;;;;;1.70;0.20;;;7.20;99.90;;;;;;5026439;28;20190;-62
2020/12/15 02:17:37;;;;;;;1.70;0.20;;;7.30;99.90;;;;;;5026203;28;20241;-62
2020/12/15 02:20:10;;;;;;;1.70;0.20;;;7.30;99.90;;;;;;5032215;28;20600;-63
2020/12/15 02:22:36;;;;;;;1.70;0.20;;;7.30;99.90;;;;;;5034453;28;20947;-62
2020/12/15 02:25:06;;;;;;;1.70;0.20;;;7.30;99.90;;;;;;5032531;28;20520;-64
2020/12/15 02:27:32;;;;;;;1.70;0.20;;;7.30;99.90;;;;;;5032877;28;20202;-62
2020/12/15 02:29:57;;;;;;;1.70;0.20;;;7.30;99.90;;;;;;5035517;28;20436;-62
2020/12/15 02:32:23;;;;;;;1.70;0.20;;;7.40;99.90;;;;;;5030424;28;20193;-62
2020/12/15 02:34:54;;;;;;;1.70;0.20;;;7.40;99.90;;;;;;5032289;28;20186;-62
2020/12/15 02:37:20;;;;;;;1.70;0.20;;;7.30;99.90;;;;;;5028256;28;20213;-62
2020/12/15 02:39:45;;;;;;;1.70;0.20;;;7.30;99.90;;;;;;5033551;28;20795;-63
2020/12/15 02:42:11;;;;;;;1.70;0.20;;;7.30;99.90;;;;;;5024352;28;20197;-62
2020/12/15 02:44:36;;;;;;;1.70;0.20;;;7.30;99.90;;;;;;5031880;28;20194;-62
2020/12/15 02:47:02;;;;;;;1.70;0.20;;;7.30;99.90;;;;;;5024882;28;20197;-62
2020/12/15 02:49:27;;;;;;;1.70;0.20;;;7.30;99.90;;;;;;5033081;28;20233;-62
2020/12/15 02:51:53;;;;;;;1.70;0.20;;;7.30;99.90;;;;;;5032952;28;20205;-62
2020/12/15 02:54:19;;;;;;;1.70;0.20;;;7.30;99.90;;;;;;5032763;28;20198;-62
2020/12/15 02:56:44;;;;;;;1.70;0.20;;;7.40;99.90;;;;;;5034403;28;20317;-62
2020/12/15 02:59:10;;;;;;;1.70;0.20;;;7.40;99.90;;;;;;5035337;28;20558;-62
2020/12/15 03:01:44;;;;;;;1.70;0.20;;;7.30;99.90;;;;;;5025103;28;20185;-62
2020/12/15 03:04:10;;;;;;;1.70;0.20;;;7.30;99.90;;;;;;5033962;28;20653;-62
2020/12/15 03:06:36;;;;;;;1.70;0.20;;;7.30;99.90;;;;;;5030860;28;20527;-62
2020/12/15 03:09:06;;;;;;;1.70;0.20;;;7.30;99.90;;;;;;5028997;28;20800;-62
2020/12/15 03:11:31;;;;;;;1.70;0.20;;;7.20;99.90;;;;;;5029142;28;20544;-62
2020/12/15 03:13:57;;;;;;;1.70;0.20;;;7.10;99.90;;;;;;5025257;28;20967;-64
2020/12/15 03:16:23;;;;;;;1.70;0.20;;;7.10;99.90;;;;;;5035837;28;20468;-62
2020/12/15 03:18:48;;;;;;;1.70;0.20;;;7.20;99.90;;;;;;5026179;28;20218;-62
2020/12/15 03:21:17;;;;;;;1.70;0.20;;;7.20;99.90;;;;;;5032472;28;20189;-62
2020/12/15 03:23:43;;;;;;;1.70;0.20;;;7.20;99.90;;;;;;5035560;28;20572;-62
2020/12/15 03:26:09;;;;;;;1.70;0.20;;;7.20;99.90;;;;;;5033174;28;20437;-62
2020/12/15 03:28:34;;;;;;;1.70;0.20;;;7.10;99.90;;;;;;5034193;28;20220;-62
2020/12/15 03:31:00;;;;;;;1.70;0.20;;;7.20;99.90;;;;;;5027135;28;20195;-62
2020/12/15 03:33:25;;;;;;;1.70;0.20;;;7.20;99.90;;;;;;5025994;28;20190;-62
2020/12/15 03:35:51;;;;;;;1.70;0.20;;;7.10;99.90;;;;;;5032522;28;20272;-63
2020/12/15 03:38:16;;;;;;;1.70;0.20;;;7.10;99.90;;;;;;5027839;28;20205;-62
2020/12/15 03:40:42;;;;;;;1.70;0.20;;;7.10;99.90;;;;;;5029743;28;20193;-62
2020/12/15 03:43:07;;;;;;;1.70;0.20;;;7.10;99.90;;;;;;5031441;28;20195;-62
2020/12/15 03:45:33;;;;;;;1.70;0.20;;;7.10;99.90;;;;;;5031225;28;20304;-62
2020/12/15 03:47:59;;;;;;;1.70;0.20;;;7.20;99.90;;;;;;5033542;28;20241;-63
2020/12/15 03:50:24;;;;;;;1.70;0.20;;;7.10;99.90;;;;;;5020795;28;20182;-62
2020/12/15 03:52:51;;;;;;;1.70;0.20;;;7.10;99.90;;;;;;5032362;28;20253;-62
2020/12/15 03:55:21;;;;;;;1.70;0.20;;;7.10;99.90;;;;;;5026053;28;20210;-63
2020/12/15 03:57:48;;;;;;;1.70;0.20;;;7.10;99.90;;;;;;5032367;28;20476;-62
2020/12/15 04:00:13;;;;;;;1.70;0.20;;;7.10;99.90;;;;;;5031385;28;20425;-62
2020/12/15 04:02:39;;;;;;;1.70;0.20;;;7.10;99.90;;;;;;5024584;28;20452;-62
2020/12/15 04:05:05;;;;;;;1.70;0.20;;;7.10;99.90;;;;;;5024334;28;20553;-62
2020/12/15 04:07:30;;;;;;;1.70;0.20;;;7.10;99.90;;;;;;5027115;28;20238;-62
2020/12/15 04:09:55;;;;;;;1.70;0.20;;;7.10;99.90;;;;;;5030212;28;20185;-62
2020/12/15 04:12:21;;;;;;;1.70;0.30;;;7.10;99.90;;;;;;5031290;28;20186;-63
2020/12/15 04:14:46;;;;;;;1.70;0.20;;;7.10;99.90;;;;;;5031375;28;20185;-62
2020/12/15 04:17:12;;;;;;;1.70;0.20;;;7.00;99.90;;;;;;5033266;28;20213;-62
2020/12/15 04:19:37;;;;;;;1.70;0.20;;;7.00;99.90;;;;;;5031656;28;20185;-62
2020/12/15 04:22:04;;;;;;;1.70;0.20;;;7.00;99.90;;;;;;5030445;28;20189;-62
2020/12/15 04:24:30;;;;;;;1.70;0.20;;;7.00;99.90;;;;;;5030770;28;20191;-62
2020/12/15 04:26:55;;;;;;;1.70;0.20;;;7.00;99.90;;;;;;5025750;28;20453;-62
2020/12/15 04:29:21;;;;;;;1.70;0.20;;;7.00;99.90;;;;;;5028278;28;20836;-62
2020/12/15 04:31:47;;;;;;;1.70;0.20;;;7.00;99.90;;;;;;5032427;28;20655;-62
2020/12/15 04:34:12;;;;;;;1.70;0.20;;;7.00;99.90;;;;;;5027836;28;20198;-66
2020/12/15 04:36:38;;;;;;;1.70;0.20;;;7.10;99.90;;;;;;5025226;28;20244;-63
2020/12/15 04:39:04;;;;;;;1.70;0.20;;;7.00;99.90;;;;;;5024459;28;20574;-62
2020/12/15 04:41:30;;;;;;;30.63;21.83;;;7.00;99.90;;;;;;5029080;28;20178;-62
2020/12/15 04:43:58;;;;;;;1.70;0.20;;;7.00;99.90;;;;;;5032940;28;20438;-62
2020/12/15 04:46:26;;;;;;;1.70;0.20;;;7.00;99.90;;;;;;5025410;28;20445;-62
2020/12/15 04:49:02;;;;;;;1.70;0.20;;;7.10;99.90;;;;;;5037130;28;20464;-63
2020/12/15 04:51:31;;;;;;;1.70;0.20;;;7.10;99.90;;;;;;5041895;28;20448;-63
2020/12/15 04:54:02;;;;;;;1.70;0.20;;;7.10;99.90;;;;;;5046143;28;20512;-62
2020/12/15 04:56:33;;;;;;;1.70;0.20;;;7.10;99.90;;;;;;5044168;28;20460;-67
2020/12/15 04:58:59;;;;;;;1.70;0.20;;;7.10;99.90;;;;;;5036497;28;20480;-62
2020/12/15 05:01:28;;;;;;;1.70;0.20;;;7.10;99.90;;;;;;5027703;28;20452;-66
2020/12/15 05:03:54;;;;;;;1.70;0.20;;;7.10;99.90;;;;;;5030657;28;20532;-62
2020/12/15 05:06:27;;;;;;;1.73;0.20;;;7.10;99.90;;;;;;5024742;28;20448;-62
2020/12/15 05:08:54;;;;;;;1.70;0.20;;;7.10;99.90;;;;;;5023608;28;20467;-62
2020/12/15 05:11:21;;;;;;;1.70;0.20;;;7.10;99.90;;;;;;5031660;28;20448;-62
2020/12/15 05:13:47;;;;;;;1.70;0.20;;;7.10;99.90;;;;;;5021615;28;20445;-63
2020/12/15 05:16:13;;;;;;;1.70;0.20;;;7.10;99.90;;;;;;5030797;28;20473;-62
2020/12/15 05:18:38;;;;;;;1.70;0.20;;;7.20;99.90;;;;;;5029304;28;21187;-62
2020/12/15 05:21:17;;;;;;;1.70;0.20;;;7.20;99.90;;;;;;5032901;28;20292;-62
2020/12/15 05:23:49;;;;;;;1.77;0.20;;;7.10;99.90;;;;;;5025306;28;20261;-62
2020/12/15 05:26:25;;;;;;;1.70;0.20;;;7.00;99.90;;;;;;5025670;28;20440;-62
2020/12/15 05:29:04;;;;;;;1.70;0.20;;;7.00;99.90;;;;;;5023199;28;20460;-62
2020/12/15 05:31:30;;;;;;;1.70;0.20;;;7.00;99.90;;;;;;5030444;28;20543;-62
2020/12/15 05:33:57;;;;;;;1.70;0.20;;;7.00;99.90;;;;;;5027128;28;20528;-62
2020/12/15 05:36:23;;;;;;;1.70;0.20;;;7.00;99.90;;;;;;5032148;28;20823;-62
2020/12/15 05:39:04;;;;;;;1.70;0.20;;;7.00;99.90;;;;;;5025370;28;20521;-62
2020/12/15 05:41:31;;;;;;;1.70;0.20;;;7.00;99.90;;;;;;5023509;28;20194;-62
2020/12/15 05:43:57;;;;;;;1.70;0.20;;;7.00;99.90;;;;;;5032960;28;20467;-62
2020/12/15 05:46:26;;;;;;;1.80;0.40;;;7.00;99.90;;;;;;5025867;28;20440;-62
2020/12/15 05:49:00;;;;;;;1.70;0.20;;;6.90;99.90;;;;;;5031134;28;20787;-62
2020/12/15 05:51:39;;;;;;;1.77;0.30;;;7.00;99.90;;;;;;5034556;28;20502;-62
2020/12/15 05:54:14;;;;;;;1.70;0.20;;;6.90;99.90;;;;;;5035269;28;20919;-62
2020/12/15 05:56:41;;;;;;;2.47;1.33;;;7.00;99.90;;;;;;5037125;28;21064;-62
2020/12/15 05:59:18;;;;;;;1.70;0.20;;;7.00;99.90;;;;;;5028124;28;21013;-62
2020/12/15 06:01:51;;;;;;;1.70;0.20;;;7.00;99.90;;;;;;5030577;28;20440;-62
2020/12/15 06:04:17;;;;;;;1.70;0.20;;;7.10;99.90;;;;;;5028458;28;20436;-62
2020/12/15 06:06:44;;;;;;;2.10;1.60;;;7.10;99.90;;;;;;5035675;28;20471;-61
2020/12/15 06:09:18;;;;;;;1.70;0.20;;;7.20;99.90;;;;;;5029919;28;20495;-62
2020/12/15 06:11:46;;;;;;;1.70;0.20;;;7.20;99.90;;;;;;5033363;28;20490;-62
2020/12/15 06:14:13;;;;;;;1.70;0.20;;;7.20;99.90;;;;;;5037481;28;20531;-62
2020/12/15 06:16:39;;;;;;;1.80;0.43;;;7.20;99.90;;;;;;5034311;28;20925;-63
2020/12/15 06:19:07;;;;;;;1.70;0.20;;;7.30;99.90;;;;;;5033018;28;20482;-63
2020/12/15 06:21:34;;;;;;;1.70;0.20;;;7.20;99.90;;;;;;5045604;28;20440;-63
2020/12/15 06:24:02;;;;;;;1.70;0.20;;;7.20;99.90;;;;;;5049396;28;20507;-63
2020/12/15 06:26:28;;;;;;;1.73;0.20;;;7.20;99.90;;;;;;5047574;28;20455;-63
2020/12/15 06:29:05;;;;;;;1.70;0.20;;;7.30;99.90;;;;;;5047386;28;20522;-62
2020/12/15 06:31:32;;;;;;;1.70;0.20;;;7.30;99.90;;;;;;5040443;28;20497;-62
2020/12/15 06:34:02;;;;;;;1.70;0.20;;;7.30;99.90;;;;;;5033019;28;20466;-62
2020/12/15 06:36:30;;;;;;;1.70;0.20;;;7.30;99.90;;;;;;5033109;28;20464;-62
2020/12/15 06:38:57;;;;;;;1.70;0.20;;;7.30;99.90;;;;;;5028267;28;20464;-61
2020/12/15 06:41:24;;;;;;;1.70;0.20;;;7.30;99.90;;;;;;5034010;28;20433;-61
2020/12/15 06:43:50;;;;;;;1.70;0.20;;;7.20;99.90;;;;;;5036936;28;20876;-64
2020/12/15 06:46:25;;;;;;;1.70;0.20;;;7.20;99.90;;;;;;5032576;28;20528;-61
2020/12/15 06:48:54;;;;;;;1.77;0.30;;;7.20;99.90;;;;;;5031668;28;20469;-62
2020/12/15 06:51:34;;;;;;;1.73;0.20;;;7.30;99.90;;;;;;5029505;28;20456;-62
2020/12/15 06:54:00;;;;;;;1.70;0.20;;;7.20;99.90;;;;;;5029166;28;20463;-62
2020/12/15 06:56:26;;;;;;;1.70;0.20;;;7.30;99.90;;;;;;5026407;28;20559;-62
2020/12/15 06:59:05;;;;;;;1.70;0.20;;;7.30;99.90;;;;;;5030495;28;20463;-63
2020/12/15 07:01:33;;;;;;;1.70;0.20;;;7.30;99.90;;;;;;5027018;28;20438;-62
2020/12/15 07:04:01;;;;;;;1.70;0.20;;;7.40;99.90;;;;;;5027996;28;20498;-62
2020/12/15 07:06:27;;;;;;;2.33;1.50;;;7.40;99.90;;;;;;5035052;28;20459;-62
2020/12/15 07:09:09;;;;;;;1.70;0.20;;;7.40;99.90;;;;;;5033642;28;20990;-62
2020/12/15 07:11:35;;;;;;;1.70;0.20;;;7.40;99.90;;;;;;5032599;28;20189;-62
2020/12/15 07:14:04;;;;;;;1.70;0.20;;;7.50;99.90;;;;;;5023288;28;20433;-62
2020/12/15 07:16:31;;;;;;;1.70;0.20;;;7.50;99.90;;;;;;5034863;28;20468;-63
2020/12/15 07:18:56;;;;;;;1.70;0.20;;;7.50;99.90;;;;;;5034398;28;20472;-62
2020/12/15 07:21:23;;;;;;;1.70;0.20;;;7.60;99.90;;;;;;5033152;28;20499;-63
2020/12/15 07:23:50;;;;;;;1.70;0.20;;;7.50;99.90;;;;;;5036300;28;20266;-63
2020/12/15 07:26:18;;;;;;;1.70;0.20;;;7.50;99.90;;;;;;5026001;28;21006;-67
2020/12/15 07:28:46;;;;;;;1.70;0.20;;;7.50;99.90;;;;;;5026856;28;20986;-62
2020/12/15 07:31:13;;;;;;;1.70;0.20;;;7.50;99.90;;;;;;5032884;28;20506;-63
2020/12/15 07:33:41;;;;;;;1.70;0.20;;;7.50;99.90;;;;;;5024184;28;20984;-63
2020/12/15 07:36:15;;;;;;;1.70;0.20;;;7.50;99.90;;;;;;5033935;28;20468;-63
2020/12/15 07:38:43;;;;;;;2.00;0.60;;;7.40;99.90;;;;;;5029485;28;20460;-61
2020/12/15 07:41:15;;;;;;;1.70;0.20;;;7.40;99.90;;;;;;5028987;28;20456;-62
2020/12/15 07:43:54;;;;;;;1.70;0.20;;;7.40;99.90;;;;;;5023709;28;20919;-62
2020/12/15 07:46:24;;;;;;;1.70;0.20;;;7.40;99.90;;;;;;5028511;28;20451;-62
2020/12/15 07:48:53;;;;;;;1.70;0.20;;;7.40;99.90;;;;;;5025530;28;20460;-61
2020/12/15 07:51:19;;;;;;;1.70;0.20;;;7.40;99.90;;;;;;5033174;28;20900;-63
2020/12/15 07:53:55;;;;;;;1.70;0.20;;;7.40;99.90;;;;;;5024776;28;20524;-61
2020/12/15 07:56:22;;;;;;;1.70;0.20;;;7.50;99.90;;;;;;5024958;28;20463;-64
2020/12/15 07:58:51;;;;;;;1.70;0.20;;;7.60;99.90;;;;;;5028280;28;20479;-63
2020/12/15 08:01:21;;;;;;;1.70;0.20;;;7.60;99.90;;;;;;5043965;28;20453;-62
2020/12/15 08:03:48;;;;;;;3.70;3.40;;;7.60;99.90;;;;;;5032743;28;21015;-66
2020/12/15 08:06:14;;;;;;;1.70;0.20;;;7.60;99.90;;;;;;5025078;28;20460;-62
2020/12/15 08:08:40;;;;;;;1.70;0.20;;;7.60;99.90;;;;;;5029124;28;20534;-62
2020/12/15 08:11:18;;;;;;;2.77;2.57;;;7.50;99.90;;;;;;5030241;28;21285;-61
2020/12/15 08:13:47;;;;;;;1.70;0.20;;;7.50;99.90;;;;;;5029316;28;20447;-61
2020/12/15 08:16:12;;;;;;;1.70;0.20;;;7.60;99.90;;;;;;5029363;28;20439;-61
2020/12/15 08:18:38;;;;;;;1.70;0.20;;;7.60;99.90;;;;;;5030401;28;20464;-61
2020/12/15 08:21:09;;;;;;;1.70;0.20;;;7.60;99.90;;;;;;5019079;28;20256;-60
2020/12/15 08:23:38;;;;;;;1.70;0.20;;;7.60;99.90;;;;;;5029524;28;20202;-60
2020/12/15 08:26:05;;;;;;;1.70;0.20;;;7.70;99.90;;;;;;5032512;28;20491;-61
2020/12/15 08:28:31;;;;;;;1.70;0.23;;;7.70;99.90;;;;;;5019652;28;20945;-62
2020/12/15 08:30:57;;;;;;;1.70;0.20;;;7.70;99.90;;;;;;5028396;28;20456;-62
2020/12/15 08:33:28;;;;;;;1.70;0.20;;;7.70;99.90;;;;;;5025850;28;20182;-62
2020/12/15 08:35:56;;;;;;;1.80;0.40;;;7.60;99.90;;;;;;5021484;28;20197;-62
2020/12/15 08:38:25;;;;;;;1.70;0.20;;;7.60;99.90;;;;;;5015227;28;20480;-61
2020/12/15 08:40:56;;;;;;;1.70;0.20;;;7.70;99.90;;;;;;5021186;28;20489;-62
2020/12/15 08:43:22;;;;;;;1.70;0.20;;;7.70;99.90;;;;;;5022768;28;20444;-62
2020/12/15 08:45:47;;;;;;;1.80;0.30;;;7.60;99.90;;;;;;5024630;28;20966;-62
2020/12/15 08:48:17;;;;;;;1.70;0.20;;;7.70;99.90;;;;;;5029702;28;20464;-61
2020/12/15 08:50:43;;;;;;;1.70;0.20;;;7.70;99.90;;;;;;5028279;28;20198;-61
2020/12/15 08:53:13;;;;;;;1.70;0.20;;;7.70;99.90;;;;;;5027751;28;20530;-61
2020/12/15 08:55:40;;;;;;;1.70;0.20;;;7.70;99.90;;;;;;5031435;28;20932;-60
2020/12/15 08:58:07;;;;;;;1.80;0.40;;;7.70;99.90;;;;;;5031336;28;20487;-61
2020/12/15 09:00:35;;;;;;;1.70;0.20;;;7.70;99.90;;;;;;5031382;28;20498;-61
2020/12/15 09:03:15;;;;;;;1.70;0.20;;;7.70;99.90;;;;;;5028047;28;20876;-61
2020/12/15 09:05:57;;;;;;;1.70;0.20;;;7.80;99.90;;;;;;5031606;28;20912;-61
2020/12/15 09:08:25;;;;;;;1.70;0.20;;;7.80;99.90;;;;;;5029113;28;20456;-61
2020/12/15 09:10:52;;;;;;;1.70;0.20;;;7.90;99.90;;;;;;5034360;28;20457;-61
2020/12/15 09:13:18;;;;;;;1.70;0.20;;;7.80;99.90;;;;;;5025566;28;20456;-61
2020/12/15 09:15:50;;;;;;;1.70;0.20;;;7.80;99.90;;;;;;5025595;28;20445;-62
2020/12/15 09:18:16;;;;;;;1.70;0.20;;;7.90;99.90;;;;;;5027406;28;20699;-61
2020/12/15 09:20:43;;;;;;;1.70;0.20;;;7.90;99.90;;;;;;5030501;28;20440;-60
2020/12/15 09:23:10;;;;;;;1.70;0.20;;;8.00;99.90;;;;;;5029832;28;20437;-62
2020/12/15 09:25:35;;;;;;;1.70;0.20;;;8.00;99.90;;;;;;5031332;28;20547;-61
2020/12/15 09:28:01;;;;;;;1.70;0.20;;;8.10;99.90;;;;;;5031828;28;20551;-61
2020/12/15 09:30:27;;;;;;;2.33;1.30;;;8.00;99.90;;;;;;5034318;28;20185;-61
2020/12/15 09:32:52;;;;;;;7.80;4.80;;;8.00;99.90;;;;;;5033834;28;20193;-61
2020/12/15 09:35:18;;;;;;;1.90;0.50;;;7.80;99.90;;;;;;5033335;28;20185;-60
2020/12/15 09:37:45;;;;;;;3.50;2.67;;;7.70;99.90;;;;;;5024984;28;20214;-61
2020/12/15 09:40:11;;;;;;;4.37;2.53;;;7.60;99.90;;;;;;5027731;28;20252;-61
2020/12/15 09:42:38;;;;;;;4.43;2.87;;;7.60;99.90;;;;;;5033519;28;20519;-61
2020/12/15 09:45:07;;;;;;;1.70;0.20;;;7.50;99.90;;;;;;5026484;28;20453;-61
2020/12/15 09:47:33;;;;;;;1.70;0.20;;;7.50;99.90;;;;;;5035863;28;20510;-60
2020/12/15 09:50:01;;;;;;;1.80;0.50;;;7.60;99.90;;;;;;5033945;28;20567;-61
2020/12/15 09:52:26;;;;;;;5.50;2.53;;;7.60;99.90;;;;;;5023458;28;20473;-61
2020/12/15 09:54:52;;;;;;;2.30;1.63;;;7.60;99.90;;;;;;5033953;28;20887;-61
2020/12/15 09:57:17;;;;;;;2.23;1.07;;;7.50;99.90;;;;;;5034004;28;20206;-60
2020/12/15 09:59:43;;;;;;;2.00;0.53;;;7.50;99.90;;;;;;5021076;28;20190;-60
2020/12/15 10:02:08;;;;;;;1.70;0.20;;;7.50;99.90;;;;;;5035427;28;20194;-61
2020/12/15 10:04:34;;;;;;;4.20;3.80;;;7.60;99.90;;;;;;5035396;28;20222;-61
2020/12/15 10:06:59;;;;;;;1.73;0.20;;;7.60;99.90;;;;;;5034472;28;20214;-61
2020/12/15 10:09:25;;;;;;;1.70;0.20;;;7.60;99.90;;;;;;5032693;28;20823;-61
2020/12/15 10:11:50;;;;;;;1.70;0.20;;;7.60;99.90;;;;;;5024834;28;20250;-60
2020/12/15 10:14:16;;;;;;;1.70;0.20;;;7.70;99.90;;;;;;5033763;28;20197;-62
2020/12/15 10:16:42;;;;;;;1.70;0.20;;;7.80;99.90;;;;;;5034112;28;20202;-61
2020/12/15 10:19:08;;;;;;;1.90;0.80;;;7.80;99.90;;;;;;5024336;28;20535;-61
2020/12/15 10:21:37;;;;;;;1.70;0.20;;;7.90;99.90;;;;;;5028365;28;20190;-61
2020/12/15 10:24:03;;;;;;;1.70;0.20;;;7.90;99.90;;;;;;5028763;28;20467;-60
2020/12/15 10:26:30;;;;;;;37.17;34.90;;;8.00;99.90;;;;;;5032413;28;20441;-61
2020/12/15 10:28:56;;;;;;;1.70;0.20;;;8.10;99.90;;;;;;5034341;28;20456;-61
2020/12/15 10:31:22;;;;;;;1.70;0.20;;;8.20;99.90;;;;;;5031003;28;20467;-62
2020/12/15 10:33:48;;;;;;;1.70;0.20;;;8.30;99.90;;;;;;5043509;28;20515;-61
2020/12/15 10:36:14;;;;;;;1.80;0.20;;;8.30;99.90;;;;;;5040241;28;20446;-62
2020/12/15 10:38:40;;;;;;;1.70;0.20;;;8.30;99.90;;;;;;5040969;28;20277;-61
2020/12/15 10:41:07;;;;;;;1.70;0.20;;;8.40;99.90;;;;;;5043348;28;20435;-62
2020/12/15 10:43:32;;;;;;;1.70;0.20;;;8.40;99.90;;;;;;5035487;28;20273;-61
2020/12/15 10:45:58;;;;;;;1.70;0.20;;;8.50;99.90;;;;;;5027905;28;20461;-61
2020/12/15 10:48:24;;;;;;;1.70;0.20;;;8.50;99.90;;;;;;5038209;28;20213;-61
2020/12/15 10:50:49;;;;;;;1.70;0.20;;;8.50;99.90;;;;;;5035300;28;20257;-62
2020/12/15 10:53:16;;;;;;;1.70;0.20;;;8.50;99.90;;;;;;5036108;28;20194;-61
2020/12/15 10:55:43;;;;;;;1.70;0.20;;;8.60;99.90;;;;;;5027994;28;20221;-61
2020/12/15 10:58:09;;;;;;;1.77;0.20;;;8.60;99.90;;;;;;5034823;28;20529;-62
2020/12/15 11:00:34;;;;;;;1.70;0.20;;;8.50;99.90;;;;;;5030339;28;20451;-61
2020/12/15 11:03:00;;;;;;;1.70;0.20;;;8.50;99.90;;;;;;5030016;28;20189;-62
2020/12/15 11:05:25;;;;;;;1.70;0.20;;;8.60;99.90;;;;;;5034927;28;20756;-62
2020/12/15 11:07:51;;;;;;;1.70;0.20;;;8.60;99.90;;;;;;5037060;28;20209;-62
2020/12/15 11:10:16;;;;;;;1.70;0.20;;;8.50;99.90;;;;;;5030712;28;20252;-61
2020/12/15 11:12:42;;;;;;;1.70;0.20;;;8.50;99.90;;;;;;5031239;28;20182;-61
2020/12/15 11:15:07;;;;;;;1.70;0.20;;;8.60;99.90;;;;;;5038114;28;20194;-61
2020/12/15 11:17:33;;;;;;;1.70;0.20;;;8.50;99.90;;;;;;5035077;28;20556;-61
2020/12/15 11:19:59;;;;;;;1.70;0.20;;;8.50;99.90;;;;;;5042690;28;20206;-61
2020/12/15 11:22:25;;;;;;;3.40;2.40;;;8.50;99.90;;;;;;5035225;28;20244;-61
2020/12/15 11:24:50;;;;;;;1.70;0.20;;;8.40;99.90;;;;;;5034805;28;20428;-60
2020/12/15 11:27:16;;;;;;;1.70;0.20;;;8.40;99.90;;;;;;5033708;28;20214;-60
2020/12/15 11:29:42;;;;;;;1.80;0.40;;;8.50;99.90;;;;;;5030985;28;20216;-61
2020/12/15 11:32:08;;;;;;;1.70;0.20;;;8.60;99.90;;;;;;5025958;28;20293;-62
2020/12/15 11:34:33;;;;;;;1.70;0.20;;;8.60;99.90;;;;;;5030925;28;20444;-65
2020/12/15 11:36:59;;;;;;;1.70;0.20;;;8.60;99.90;;;;;;5034828;28;20209;-62
2020/12/15 11:39:25;;;;;;;10.60;9.60;;;8.60;99.90;;;;;;5032282;28;20182;-62
2020/12/15 11:41:51;;;;;;;1.77;0.20;;;8.60;99.90;;;;;;5031646;28;20537;-62
2020/12/15 11:44:20;;;;;;;1.80;0.20;;;8.60;99.90;;;;;;5049183;28;20190;-62
2020/12/15 11:46:45;;;;;;;1.70;0.20;;;8.60;99.90;;;;;;5034252;28;20502;-61
2020/12/15 11:49:12;;;;;;;1.70;0.20;;;8.50;99.90;;;;;;5031500;28;20534;-62
2020/12/15 11:51:37;;;;;;;1.70;0.20;;;8.60;99.90;;;;;;5029227;28;20277;-63
2020/12/15 11:54:03;;;;;;;1.77;0.20;;;8.60;99.90;;;;;;5025471;28;20550;-62
2020/12/15 11:56:28;;;;;;;1.80;0.60;;;8.60;99.90;;;;;;5034988;28;20206;-62
2020/12/15 11:58:54;;;;;;;1.73;0.20;;;8.60;99.90;;;;;;5034761;28;20563;-63
2020/12/15 12:01:19;;;;;;;1.80;0.40;;;8.60;99.90;;;;;;5040760;28;20236;-61
2020/12/15 12:03:45;;;;;;;1.90;0.30;;;8.70;99.90;;;;;;5027215;28;20178;-62
2020/12/15 12:06:11;;;;;;;1.90;0.77;;;8.70;99.90;;;;;;5031910;28;20189;-62
2020/12/15 12:08:36;;;;;;;4.93;1.13;;;8.60;99.90;;;;;;5033023;28;20384;-63
2020/12/15 12:11:02;;;;;;;1.70;0.20;;;8.60;99.90;;;;;;5024802;28;20225;-62
2020/12/15 12:13:28;;;;;;;1.70;0.20;;;8.60;99.90;;;;;;5029601;28;20240;-61
2020/12/15 12:15:53;;;;;;;1.70;0.20;;;8.70;99.90;;;;;;5033756;28;20440;-61
2020/12/15 12:18:19;;;;;;;1.70;0.20;;;8.70;99.90;;;;;;5024305;28;20240;-62
2020/12/15 12:20:44;;;;;;;2.00;0.77;;;8.80;99.90;;;;;;5030589;28;20212;-63
2020/12/15 12:23:10;;;;;;;1.70;0.20;;;8.70;99.90;;;;;;5031380;28;20182;-61
2020/12/15 12:25:37;;;;;;;1.70;0.20;;;8.80;99.90;;;;;;5032973;28;20784;-62
2020/12/15 12:28:02;;;;;;;1.70;0.20;;;8.80;99.90;;;;;;5035114;28;20225;-62
2020/12/15 12:30:28;;;;;;;1.70;0.20;;;8.80;99.90;;;;;;5026004;28;20425;-62
2020/12/15 12:32:53;;;;;;;1.70;0.20;;;8.80;99.90;;;;;;5028829;28;20196;-62
2020/12/15 12:35:20;;;;;;;1.70;0.20;;;8.80;99.90;;;;;;5031342;28;20194;-60
2020/12/15 12:37:45;;;;;;;1.70;0.20;;;8.90;99.90;;;;;;5036217;28;20214;-63
2020/12/15 12:40:11;;;;;;;1.70;0.20;;;8.90;99.90;;;;;;5036257;28;20454;-62
2020/12/15 12:42:38;;;;;;;1.70;0.20;;;9.00;99.90;;;;;;5035910;28;20178;-63
2020/12/15 12:45:04;;;;;;;1.80;0.20;;;9.00;99.90;;;;;;5030089;28;20425;-65
2020/12/15 12:47:29;;;;;;;1.70;0.20;;;8.90;99.90;;;;;;5030358;28;20608;-63
2020/12/15 12:49:55;;;;;;;1.70;0.20;;;9.00;99.90;;;;;;5030581;28;20187;-62
2020/12/15 12:52:20;;;;;;;1.70;0.20;;;9.00;99.90;;;;;;5034106;28;20332;-63
2020/12/15 12:54:46;;;;;;;1.70;0.20;;;9.00;99.90;;;;;;5029282;28;20641;-64
2020/12/15 12:57:11;;;;;;;1.70;0.20;;;9.00;99.90;;;;;;5023953;28;20792;-64